createdAt,value
2023-03-26T00:01:51.258Z,0.30
2023-03-26T00:04:19.973Z,0.50
2023-03-26T00:06:49.120Z,0.30
2023-03-26T00:09:17.998Z,0.30
2023-03-26T00:11:48.384Z,0.30
2023-03-26T00:14:18.015Z,0.20
2023-03-26T00:16:45.800Z,0.30
2023-03-26T00:19:13.076Z,0.50
2023-03-26T00:21:41.664Z,0.40
2023-03-26T00:24:15.385Z,0.50
2023-03-26T00:26:44.706Z,0.47
2023-03-26T00:29:13.632Z,0.40
2023-03-26T00:31:41.207Z,0.70
2023-03-26T00:34:10.568Z,0.40
2023-03-26T00:36:38.021Z,0.30
2023-03-26T00:39:05.978Z,0.40
2023-03-26T00:41:37.329Z,0.50
2023-03-26T00:44:04.861Z,0.43
2023-03-26T00:46:32.457Z,0.32
2023-03-26T00:49:02.010Z,0.50
2023-03-26T00:51:30.323Z,0.40
2023-03-26T00:53:58.286Z,0.40
2023-03-26T00:56:27.189Z,0.40
2023-03-26T00:58:54.337Z,0.65
2023-03-26T01:01:30.561Z,0.50
2023-03-26T01:04:08.809Z,0.40
2023-03-26T01:06:41.537Z,0.40
2023-03-26T01:09:18.880Z,0.20
2023-03-26T01:11:47.657Z,0.30
2023-03-26T01:14:27.015Z,0.32
2023-03-26T01:16:57.992Z,4.85
2023-03-26T01:19:48.157Z,5.00
2023-03-26T01:22:23.424Z,3.92
2023-03-26T01:24:56.475Z,3.50
2023-03-26T01:27:52.523Z,2.90
2023-03-26T01:30:42.484Z,1.80
2023-03-26T01:33:34.096Z,1.30
2023-03-26T01:36:17.377Z,1.00
2023-03-26T01:39:01.763Z,0.70
2023-03-26T01:41:46.084Z,0.52
2023-03-26T01:44:35.136Z,0.50
2023-03-26T01:47:03.574Z,0.40
2023-03-26T01:49:32.146Z,0.40
2023-03-26T01:52:00.888Z,0.30
2023-03-26T01:54:31.630Z,0.30
2023-03-26T01:57:32.632Z,0.28
2023-03-26T02:00:31.432Z,0.40
2023-03-26T02:03:30.816Z,0.30
2023-03-26T02:06:17.678Z,0.25
2023-03-26T02:09:10.035Z,0.30
2023-03-26T02:11:39.181Z,0.25
2023-03-26T02:14:08.729Z,0.20
2023-03-26T02:16:35.886Z,0.20
2023-03-26T02:19:04.590Z,0.43
2023-03-26T02:21:34.238Z,0.30
2023-03-26T02:24:05.016Z,0.30
2023-03-26T02:26:34.667Z,0.13
2023-03-26T02:29:02.211Z,0.30
2023-03-26T02:31:32.590Z,0.40
2023-03-26T02:33:59.643Z,0.40
2023-03-26T02:36:29.907Z,0.35
2023-03-26T02:38:58.265Z,0.30
2023-03-26T02:41:25.516Z,0.35
2023-03-26T02:43:52.659Z,0.40
2023-03-26T02:46:20.081Z,0.20
2023-03-26T02:48:47.944Z,0.30
2023-03-26T02:51:15.133Z,0.32
2023-03-26T02:53:42.313Z,0.43
2023-03-26T02:56:10.038Z,0.20
2023-03-26T02:58:37.314Z,0.25
2023-03-26T03:01:05.206Z,0.30
2023-03-26T03:03:32.492Z,0.40
2023-03-26T03:06:00.137Z,0.32
2023-03-26T03:08:28.564Z,0.17
2023-03-26T03:11:12.329Z,0.40
2023-03-26T03:13:42.720Z,0.40
2023-03-26T03:16:10.945Z,0.50
2023-03-26T03:18:38.228Z,0.45
2023-03-26T03:21:06.745Z,0.40
2023-03-26T03:23:33.970Z,0.30
2023-03-26T03:26:02.669Z,0.40
2023-03-26T03:28:30.767Z,0.45
2023-03-26T03:30:58.113Z,0.30
2023-03-26T03:33:25.491Z,0.50
2023-03-26T03:35:53.086Z,0.30
2023-03-26T03:38:20.769Z,0.40
2023-03-26T03:40:48.011Z,0.30
2023-03-26T03:43:15.109Z,0.20
2023-03-26T03:45:42.471Z,0.30
2023-03-26T03:48:09.627Z,0.35
2023-03-26T03:50:36.992Z,0.30
2023-03-26T03:53:05.830Z,0.32
2023-03-26T03:55:33.036Z,0.28
2023-03-26T03:58:00.335Z,0.40
2023-03-26T04:00:34.006Z,0.25
2023-03-26T04:03:06.815Z,0.38
2023-03-26T04:05:34.224Z,0.40
2023-03-26T04:08:01.497Z,0.40
2023-03-26T04:10:28.671Z,0.45
2023-03-26T04:12:55.947Z,0.50
2023-03-26T04:15:23.008Z,0.45
2023-03-26T04:17:52.192Z,0.32
2023-03-26T04:20:19.638Z,0.30
2023-03-26T04:22:46.821Z,0.40
2023-03-26T04:25:15.645Z,0.30
2023-03-26T04:27:44.182Z,0.40
2023-03-26T04:30:20.813Z,0.40
2023-03-26T04:32:49.184Z,0.40
2023-03-26T04:35:17.370Z,0.50
2023-03-26T04:37:46.208Z,0.52
2023-03-26T04:40:22.125Z,0.40
2023-03-26T04:42:49.293Z,0.40
2023-03-26T04:45:23.031Z,0.40
2023-03-26T04:47:50.999Z,0.40
2023-03-26T04:50:18.259Z,0.20
2023-03-26T04:52:46.004Z,0.30
2023-03-26T04:55:33.138Z,0.40
2023-03-26T04:58:03.555Z,0.30
2023-03-26T05:00:30.756Z,0.38
2023-03-26T05:03:01.634Z,0.45
2023-03-26T05:05:29.868Z,1.20
2023-03-26T05:07:57.022Z,3.88
2023-03-26T05:10:24.233Z,5.35
2023-03-26T05:12:51.493Z,3.58
2023-03-26T05:15:18.969Z,2.20
2023-03-26T05:17:46.625Z,1.88
2023-03-26T05:20:26.470Z,1.50
2023-03-26T05:22:54.162Z,1.40
2023-03-26T05:25:21.553Z,0.60
2023-03-26T05:27:48.840Z,0.80
2023-03-26T05:30:20.644Z,0.60
2023-03-26T05:35:17.704Z,0.38
2023-03-26T05:37:46.944Z,0.45
2023-03-26T05:40:17.292Z,0.73
2023-03-26T05:42:45.645Z,0.60
2023-03-26T05:45:14.982Z,0.90
2023-03-26T05:47:42.378Z,0.90
2023-03-26T05:50:11.280Z,0.93
2023-03-26T05:52:38.538Z,1.10
2023-03-26T05:55:06.719Z,1.30
2023-03-26T05:57:35.571Z,1.70
2023-03-26T06:00:04.800Z,1.35
2023-03-26T06:02:31.931Z,1.30
2023-03-26T06:04:59.140Z,1.40
2023-03-26T06:07:27.297Z,1.40
2023-03-26T06:09:54.894Z,1.70
2023-03-26T06:12:22.082Z,1.90
2023-03-26T06:14:49.216Z,1.50
2023-03-26T06:17:16.829Z,1.65
2023-03-26T06:19:43.981Z,1.55
2023-03-26T06:22:11.926Z,1.55
2023-03-26T06:24:39.324Z,1.20
2023-03-26T06:27:07.094Z,1.30
2023-03-26T06:29:34.287Z,0.90
2023-03-26T06:32:12.423Z,0.80
2023-03-26T06:34:46.255Z,0.80
2023-03-26T06:37:13.367Z,0.60
2023-03-26T06:39:40.859Z,0.60
2023-03-26T06:42:08.308Z,0.70
2023-03-26T06:44:35.983Z,0.75
2023-03-26T06:47:03.112Z,0.80
2023-03-26T06:49:30.505Z,0.80
2023-03-26T06:51:57.918Z,0.70
2023-03-26T06:54:25.092Z,0.60
2023-03-26T06:56:52.329Z,0.40
2023-03-26T06:59:19.954Z,1.00
2023-03-26T07:01:47.267Z,0.80
2023-03-26T07:04:14.432Z,0.70
2023-03-26T07:06:41.604Z,0.68
2023-03-26T07:09:09.166Z,0.65
2023-03-26T07:11:36.262Z,0.80
2023-03-26T07:14:03.425Z,0.40
2023-03-26T07:16:30.682Z,0.70
2023-03-26T07:18:57.905Z,0.40
2023-03-26T07:21:25.546Z,0.45
2023-03-26T07:23:55.032Z,0.63
2023-03-26T07:26:31.690Z,0.55
2023-03-26T07:29:20.021Z,0.40
2023-03-26T07:32:19.231Z,0.60
2023-03-26T07:35:14.186Z,0.50
2023-03-26T07:37:44.316Z,0.32
2023-03-26T07:40:27.233Z,0.52
2023-03-26T07:43:07.347Z,0.60
2023-03-26T07:45:43.178Z,0.50
2023-03-26T07:48:27.723Z,0.65
2023-03-26T07:50:56.698Z,0.50
2023-03-26T07:53:24.552Z,0.50
2023-03-26T07:56:03.127Z,0.60
2023-03-26T07:59:02.484Z,0.65
2023-03-26T08:02:03.920Z,0.50
2023-03-26T08:04:48.783Z,0.40
2023-03-26T08:07:56.872Z,0.60
2023-03-26T08:10:43.324Z,0.60
2023-03-26T08:13:35.878Z,0.50
2023-03-26T08:16:56.567Z,0.73
2023-03-26T08:19:58.302Z,0.47
2023-03-26T08:22:51.643Z,0.47
2023-03-26T08:25:40.577Z,0.52
2023-03-26T08:28:26.501Z,0.32
2023-03-26T08:30:55.326Z,0.43
2023-03-26T08:33:27.225Z,0.32
2023-03-26T08:35:54.599Z,0.30
2023-03-26T08:38:22.822Z,0.40
2023-03-26T08:41:11.998Z,0.50
2023-03-26T08:44:03.105Z,0.60
2023-03-26T08:47:17.602Z,0.45
2023-03-26T08:50:51.207Z,0.60
2023-03-26T08:53:29.939Z,0.30
2023-03-26T08:56:53.920Z,0.30
2023-03-26T08:59:55.923Z,0.40
2023-03-26T09:02:34.455Z,0.52
2023-03-26T09:05:56.908Z,0.40
2023-03-26T09:09:00.980Z,0.30
2023-03-26T09:12:00.590Z,0.40
2023-03-26T09:15:09.132Z,0.40
2023-03-26T09:17:58.113Z,0.57
2023-03-26T09:20:48.463Z,0.52
2023-03-26T09:23:59.433Z,0.60
2023-03-26T09:26:51.622Z,0.30
2023-03-26T09:32:31.736Z,0.20
2023-03-26T09:35:04.599Z,0.60
2023-03-26T09:37:57.186Z,0.35
2023-03-26T09:40:54.390Z,0.40
2023-03-26T09:43:33.651Z,0.50
2023-03-26T09:46:40.052Z,0.63
2023-03-26T09:49:26.862Z,0.50
2023-03-26T09:52:13.588Z,0.60
2023-03-26T09:54:58.707Z,1.10
2023-03-26T09:58:01.476Z,0.47
2023-03-26T10:00:36.799Z,0.70
2023-03-26T10:03:29.638Z,0.75
2023-03-26T10:06:19.235Z,0.90
2023-03-26T10:09:08.702Z,0.80
2023-03-26T10:11:56.231Z,0.98
2023-03-26T10:14:38.963Z,0.85
2023-03-26T10:17:40.171Z,0.88
2023-03-26T10:20:34.020Z,0.60
2023-03-26T10:23:28.848Z,0.60
2023-03-26T10:26:32.664Z,0.50
2023-03-26T10:29:04.877Z,0.30
2023-03-26T10:32:15.972Z,0.52
2023-03-26T10:34:59.291Z,0.50
2023-03-26T10:37:51.869Z,0.40
2023-03-26T10:40:32.412Z,0.40
2023-03-26T10:43:19.769Z,0.60
2023-03-26T10:46:35.080Z,0.30
2023-03-26T10:49:32.938Z,0.60
2023-03-26T10:52:07.845Z,0.50
2023-03-26T10:54:58.236Z,0.50
2023-03-26T10:57:56.356Z,0.63
2023-03-26T11:00:26.583Z,0.45
2023-03-26T11:03:34.480Z,0.70
2023-03-26T11:06:44.646Z,0.60
2023-03-26T11:09:49.389Z,0.65
2023-03-26T11:12:29.582Z,0.68
2023-03-26T11:15:15.408Z,0.80
2023-03-26T11:18:25.745Z,0.60
2023-03-26T11:21:19.898Z,0.60
2023-03-26T11:24:35.914Z,0.60
2023-03-26T11:27:36.531Z,0.63
2023-03-26T11:30:22.303Z,0.43
2023-03-26T11:32:56.093Z,0.47
2023-03-26T11:35:40.818Z,0.73
2023-03-26T11:38:42.088Z,0.52
2023-03-26T11:41:24.625Z,0.82
2023-03-26T11:44:21.655Z,0.80
2023-03-26T11:46:54.165Z,0.60
2023-03-26T11:49:23.318Z,0.65
2023-03-26T11:51:50.938Z,0.60
2023-03-26T11:54:18.489Z,0.60
2023-03-26T11:57:04.818Z,0.80
2023-03-26T11:59:57.999Z,0.52
2023-03-26T12:02:35.769Z,0.57
2023-03-26T12:05:19.473Z,0.70
2023-03-26T12:08:04.559Z,0.90
2023-03-26T12:10:40.268Z,1.33
2023-03-26T12:13:25.404Z,0.82
2023-03-26T12:16:07.199Z,0.60
2023-03-26T12:18:34.838Z,0.68
2023-03-26T12:21:17.611Z,0.50
2023-03-26T12:24:05.741Z,0.50
2023-03-26T12:26:49.062Z,0.68
2023-03-26T12:29:19.185Z,0.77
2023-03-26T12:31:57.774Z,0.70
2023-03-26T12:34:35.088Z,0.70
2023-03-26T12:37:04.678Z,0.70
2023-03-26T12:40:11.855Z,0.85
2023-03-26T12:44:56.100Z,0.60
